Capt E. Frank Thompson — WDG2784 — position and weather

sailwx.info

Track history (hours):
 
Tides and Currents Weather Stations Pressure Air Temp Water Temp Dewpoint Dewpoint Depression Visibility Wind Speed Wind Dir Waves Ship Positions

Capt E. Frank Thompson

Owner: Maine Dept. of Transportation/Ferry Service, Rockland, ME. More information available from US FCC via Universal Licensing System and Coast Guard Vessel Documentation Center.

Last reported at 2017-Oct-17 21:50 UTC. Time now 2017-Oct-18 11:15 UTC.
Position N 44°06' W 069°06'.

Length 47 m.

Type: Passenger vessel. MMSI: 367519240.

Date/timePositionNaut miles runAvg speedWind from/ knotsBaromVisibWave heightAir tempDewpointWater temp
2017-Oct-17 21:50N 44°06' W 069°06'2 5.8
2017-Oct-17 21:24N 44°06' W 069°03'8 4.6
2017-Oct-17 19:41N 44°03' W 068°53'311.8
2017-Oct-17 19:24N 44°05' W 068°57'512.2
2017-Oct-17 19:00N 44°06' W 069°03'2 4.3
2017-Oct-17 18:28N 44°06' W 069°06'2 4.7
2017-Oct-17 17:57N 44°06' W 069°03'511.8
2017-Oct-17 17:30N 44°05' W 068°56'5 2.9
2017-Oct-17 15:56N 44°03' W 068°50'5 6.0
2017-Oct-17 15:10N 44°05' W 068°56'212.6
2017-Oct-17 14:59N 44°05' W 068°59'5 8.4
2017-Oct-17 14:20N 44°06' W 069°06'0 0.0
2017-Oct-17 13:58N 44°06' W 069°06'4 9.2
2017-Oct-17 13:29N 44°06' W 069°00'611.6
2017-Oct-17 13:00N 44°03' W 068°53'2 1.5
2017-Oct-17 11:44N 44°04' W 068°55'312.1
2017-Oct-17 11:29N 44°06' W 068°59'510.0
2017-Oct-17 10:58N 44°06' W 069°06'0 0.0
2017-Oct-16 21:40N 44°06' W 069°06'2 7.3
2017-Oct-16 21:26N 44°06' W 069°04'10 6.7
2017-Oct-16 19:53N 44°02' W 068°51'411.1
2017-Oct-16 19:30N 44°04' W 068°56'611.9
2017-Oct-16 18:59N 44°06' W 069°04'2 3.7
2017-Oct-16 18:29N 44°06' W 069°06'3 4.9
2017-Oct-16 17:55N 44°06' W 069°03'511.4
2017-Oct-16 17:30N 44°05' W 068°56'3 1.7
2017-Oct-16 15:40N 44°03' W 068°53'412.3
2017-Oct-16 15:19N 44°05' W 068°58'411.7
2017-Oct-16 15:00N 44°06' W 069°03'3 2.6
2017-Oct-16 13:59N 44°06' W 069°06'810.5
2017-Oct-16 13:15N 44°05' W 068°56'310.9
2017-Oct-16 12:58N 44°03' W 068°52'2 1.9
2017-Oct-16 12:09N 44°03' W 068°50'1 8.0
2017-Oct-16 11:58N 44°03' W 068°52'511.5
2017-Oct-16 11:30N 44°06' W 068°59'5 0.4
2017-Oct-15 21:40N 44°06' W 069°06'3 9.6
2017-Oct-15 21:21N 44°06' W 069°02'511.8
2017-Oct-15 20:54N 44°04' W 068°55'4 3.6
2017-Oct-15 19:52N 44°02' W 068°51'511.0
2017-Oct-15 19:25N 44°05' W 068°57'512.1
2017-Oct-15 19:00N 44°06' W 069°03'2 2.9
2017-Oct-15 18:13N 44°06' W 069°06'4 9.1
2017-Oct-15 17:49N 44°06' W 069°01'511.6
2017-Oct-15 17:20N 44°04' W 068°54'3 1.5
2017-Oct-15 15:32N 44°03' W 068°51'213.2
2017-Oct-15 15:25N 44°03' W 068°53'711.7
2017-Oct-15 14:50N 44°06' W 069°02'3 3.8
2017-Oct-15 13:59N 44°06' W 069°06'710.4
2017-Oct-15 13:18N 44°05' W 068°57'3 2.4
2017-Oct-15 11:57N 44°03' W 068°53'611.8
2017-Oct-15 11:27N 44°06' W 069°00'5 0.3
2017-Oct-14 21:51N 44°06' W 069°06'1 3.0
2017-Oct-14 21:30N 44°06' W 069°05'811.9
2017-Oct-14 20:47N 44°04' W 068°54'3 3.0
2017-Oct-14 19:54N 44°02' W 068°51'5 9.9
2017-Oct-14 19:26N 44°05' W 068°56'7 5.3
2017-Oct-14 18:06N 44°06' W 069°06'310.4
2017-Oct-14 17:51N 44°06' W 069°02'411.9
2017-Oct-14 17:29N 44°05' W 068°56'3 1.5
2017-Oct-14 15:26N 44°03' W 068°53'711.8
2017-Oct-14 14:52N 44°06' W 069°01'4 7.9
2017-Oct-14 14:24N 44°06' W 069°06'0 0.5
2017-Oct-14 13:55N 44°06' W 069°06'611.1
2017-Oct-14 13:21N 44°05' W 068°57'4 3.1
2017-Oct-14 11:57N 44°03' W 068°52'512.1
2017-Oct-14 11:30N 44°06' W 068°59'5 0.4
2017-Oct-13 21:41N 44°06' W 069°06'3 9.2
2017-Oct-13 21:21N 44°06' W 069°02'612.0
2017-Oct-13 20:49N 44°04' W 068°54'3 3.0
2017-Oct-13 19:54N 44°02' W 068°51'510.5
2017-Oct-13 19:23N 44°05' W 068°57'611.9
2017-Oct-13 18:53N 44°06' W 069°05'1 1.9
2017-Oct-13 18:27N 44°06' W 069°06'1 2.5
2017-Oct-13 18:00N 44°06' W 069°05'711.9
2017-Oct-13 17:23N 44°04' W 068°55'3 1.5
2017-Oct-13 15:32N 44°03' W 068°52'212.0
2017-Oct-13 15:24N 44°04' W 068°53'611.7
2017-Oct-13 14:55N 44°06' W 069°01'4 4.1
2017-Oct-13 13:55N 44°06' W 069°06'410.6
2017-Oct-13 13:30N 44°06' W 069°00'8 5.5
2017-Oct-13 12:06N 44°02' W 068°51'211.7
2017-Oct-13 11:58N 44°03' W 068°53'711.9
2017-Oct-13 11:21N 44°06' W 069°02'3 0.2
2017-Oct-12 21:41N 44°06' W 069°06'2 8.5
2017-Oct-12 21:29N 44°06' W 069°04'611.8
2017-Oct-12 21:00N 44°05' W 068°56'2 1.2
2017-Oct-12 19:35N 44°04' W 068°54'112.0
2017-Oct-12 19:30N 44°05' W 068°56'612.0
2017-Oct-12 19:00N 44°06' W 069°04'2 2.9
2017-Oct-12 18:18N 44°06' W 069°06'1 3.2
2017-Oct-12 17:59N 44°06' W 069°05'612.3
2017-Oct-12 17:29N 44°05' W 068°57'5 2.9
2017-Oct-12 15:45N 44°02' W 068°51'311.1
2017-Oct-12 15:29N 44°04' W 068°54'811.9
2017-Oct-12 14:50N 44°06' W 069°04'2 5.1
2017-Oct-12 14:30N 44°06' W 069°06'1 1.5
2017-Oct-12 13:46N 44°06' W 069°05'6 3.0
2017-Oct-12 11:39N 44°05' W 068°56'412.3
2017-Oct-12 11:19N 44°06' W 069°02'310.7
2017-Oct-12 11:00N 44°06' W 069°06'0 0.0
2017-Oct-11 21:51N 44°06' W 069°06'1 4.1
2017-Oct-11 21:30N 44°06' W 069°04'711.6
2017-Oct-11 20:54N 44°04' W 068°55'1 1.2
2017-Oct-11 19:38N 44°04' W 068°53'211.8
2017-Oct-11 19:29N 44°04' W 068°55'812.2
2017-Oct-11 18:53N 44°06' W 069°05'1 0.9
2017-Oct-11 18:09N 44°06' W 069°06'1 7.5
2017-Oct-11 17:58N 44°06' W 069°04'511.7
2017-Oct-11 17:31N 44°05' W 068°57'1 0.0
2017-Oct-10 21:05N 44°05' W 068°58'1 9.8
2017-Oct-10 21:00N 44°05' W 068°57'5 4.5
2017-Oct-10 19:52N 44°02' W 068°51'712.1
2017-Oct-10 19:15N 44°06' W 068°60'312.2
2017-Oct-10 19:00N 44°06' W 069°04'2 2.7
2017-Oct-10 18:24N 44°06' W 069°06'2 4.4
2017-Oct-10 17:57N 44°06' W 069°04'10 4.3
2017-Oct-10 15:36N 44°02' W 068°51'211.3
2017-Oct-10 15:27N 44°03' W 068°53'10 6.0
2017-Oct-10 13:51N 44°06' W 069°06'411.8
2017-Oct-10 13:30N 44°06' W 068°60'7 5.0
2017-Oct-10 12:07N 44°03' W 068°51'412.7
2017-Oct-10 11:49N 44°05' W 068°56'511.4
2017-Oct-10 11:24N 44°06' W 069°02'2 0.1
2017-Oct-09 21:13N 44°06' W 068°60'211.8
2017-Oct-09 21:00N 44°05' W 068°57'1 0.4
2017-Oct-09 19:33N 44°05' W 068°56'8 5.7
2017-Oct-09 18:12N 44°06' W 069°06'1 6.8
2017-Oct-09 18:00N 44°06' W 069°05'612.2
2017-Oct-09 17:29N 44°05' W 068°56'3 2.0
2017-Oct-09 15:53N 44°03' W 068°52'811.5
2017-Oct-09 15:10N 44°06' W 069°03'2 2.1
2017-Oct-09 14:04N 44°06' W 069°06'0 1.5
2017-Oct-09 13:59N 44°06' W 069°06'711.1
2017-Oct-09 13:22N 44°05' W 068°57'5 5.7
2017-Oct-09 12:26N 44°03' W 068°50'510.3
2017-Oct-09 11:55N 44°05' W 068°57'512.2
2017-Oct-09 11:30N 44°06' W 069°04'2 0.1
2017-Oct-08 17:40N 44°06' W 069°06'0 0.0
2017-Oct-08 17:24N 44°06' W 069°06'0 0.0
2017-Oct-08 16:51N 44°06' W 069°06'0 0.0
2017-Oct-08 16:19N 44°06' W 069°06'0 0.0
2017-Oct-08 14:41N 44°06' W 069°06'0 0.0
2017-Oct-08 14:19N 44°06' W 069°06'0 0.2
2017-Oct-08 13:55N 44°06' W 069°06'510.4
2017-Oct-08 13:24N 44°06' W 068°59'5 3.7
2017-Oct-08 11:59N 44°03' W 068°53'  
Track history (hours):
 
Tides and Currents Weather Stations Pressure Air Temp Water Temp Dewpoint Dewpoint Depression Visibility Wind Speed Wind Dir Waves Ship Positions

Capt E. Frank Thompson

Owner: Maine Dept. of Transportation/Ferry Service, Rockland, ME. More information available from US FCC via Universal Licensing System and Coast Guard Vessel Documentation Center.

Last reported at 2017-Oct-17 21:50 UTC. Time now 2017-Oct-18 11:15 UTC.
Position N 44°06' W 069°06'.

Length 47 m.

Type: Passenger vessel. MMSI: 367519240.

Date/timePositionNaut miles runAvg speedWind from/ knotsBaromVisibWave heightAir tempDewpointWater temp
2017-Oct-17 21:50N 44°06' W 069°06'2 5.8
2017-Oct-17 21:24N 44°06' W 069°03'8 4.6
2017-Oct-17 19:41N 44°03' W 068°53'311.8
2017-Oct-17 19:24N 44°05' W 068°57'512.2
2017-Oct-17 19:00N 44°06' W 069°03'2 4.3
2017-Oct-17 18:28N 44°06' W 069°06'2 4.7
2017-Oct-17 17:57N 44°06' W 069°03'511.8
2017-Oct-17 17:30N 44°05' W 068°56'5 2.9
2017-Oct-17 15:56N 44°03' W 068°50'5 6.0
2017-Oct-17 15:10N 44°05' W 068°56'212.6
2017-Oct-17 14:59N 44°05' W 068°59'5 8.4
2017-Oct-17 14:20N 44°06' W 069°06'0 0.0
2017-Oct-17 13:58N 44°06' W 069°06'4 9.2
2017-Oct-17 13:29N 44°06' W 069°00'611.6
2017-Oct-17 13:00N 44°03' W 068°53'2 1.5
2017-Oct-17 11:44N 44°04' W 068°55'312.1
2017-Oct-17 11:29N 44°06' W 068°59'510.0
2017-Oct-17 10:58N 44°06' W 069°06'0 0.0
2017-Oct-16 21:40N 44°06' W 069°06'2 7.3
2017-Oct-16 21:26N 44°06' W 069°04'10 6.7
2017-Oct-16 19:53N 44°02' W 068°51'411.1
2017-Oct-16 19:30N 44°04' W 068°56'611.9
2017-Oct-16 18:59N 44°06' W 069°04'2 3.7
2017-Oct-16 18:29N 44°06' W 069°06'3 4.9
2017-Oct-16 17:55N 44°06' W 069°03'511.4
2017-Oct-16 17:30N 44°05' W 068°56'3 1.7
2017-Oct-16 15:40N 44°03' W 068°53'412.3
2017-Oct-16 15:19N 44°05' W 068°58'411.7
2017-Oct-16 15:00N 44°06' W 069°03'3 2.6
2017-Oct-16 13:59N 44°06' W 069°06'810.5
2017-Oct-16 13:15N 44°05' W 068°56'310.9
2017-Oct-16 12:58N 44°03' W 068°52'2 1.9
2017-Oct-16 12:09N 44°03' W 068°50'1 8.0
2017-Oct-16 11:58N 44°03' W 068°52'511.5
2017-Oct-16 11:30N 44°06' W 068°59'5 0.4
2017-Oct-15 21:40N 44°06' W 069°06'3 9.6
2017-Oct-15 21:21N 44°06' W 069°02'511.8
2017-Oct-15 20:54N 44°04' W 068°55'4 3.6
2017-Oct-15 19:52N 44°02' W 068°51'511.0
2017-Oct-15 19:25N 44°05' W 068°57'512.1
2017-Oct-15 19:00N 44°06' W 069°03'2 2.9
2017-Oct-15 18:13N 44°06' W 069°06'4 9.1
2017-Oct-15 17:49N 44°06' W 069°01'511.6
2017-Oct-15 17:20N 44°04' W 068°54'3 1.5
2017-Oct-15 15:32N 44°03' W 068°51'213.2
2017-Oct-15 15:25N 44°03' W 068°53'711.7
2017-Oct-15 14:50N 44°06' W 069°02'3 3.8
2017-Oct-15 13:59N 44°06' W 069°06'710.4
2017-Oct-15 13:18N 44°05' W 068°57'3 2.4
2017-Oct-15 11:57N 44°03' W 068°53'611.8
2017-Oct-15 11:27N 44°06' W 069°00'5 0.3
2017-Oct-14 21:51N 44°06' W 069°06'1 3.0
2017-Oct-14 21:30N 44°06' W 069°05'811.9
2017-Oct-14 20:47N 44°04' W 068°54'3 3.0
2017-Oct-14 19:54N 44°02' W 068°51'5 9.9
2017-Oct-14 19:26N 44°05' W 068°56'7 5.3
2017-Oct-14 18:06N 44°06' W 069°06'310.4
2017-Oct-14 17:51N 44°06' W 069°02'411.9
2017-Oct-14 17:29N 44°05' W 068°56'3 1.5
2017-Oct-14 15:26N 44°03' W 068°53'711.8
2017-Oct-14 14:52N 44°06' W 069°01'4 7.9
2017-Oct-14 14:24N 44°06' W 069°06'0 0.5
2017-Oct-14 13:55N 44°06' W 069°06'611.1
2017-Oct-14 13:21N 44°05' W 068°57'4 3.1
2017-Oct-14 11:57N 44°03' W 068°52'512.1
2017-Oct-14 11:30N 44°06' W 068°59'5 0.4
2017-Oct-13 21:41N 44°06' W 069°06'3 9.2
2017-Oct-13 21:21N 44°06' W 069°02'612.0
2017-Oct-13 20:49N 44°04' W 068°54'3 3.0
2017-Oct-13 19:54N 44°02' W 068°51'510.5
2017-Oct-13 19:23N 44°05' W 068°57'611.9
2017-Oct-13 18:53N 44°06' W 069°05'1 1.9
2017-Oct-13 18:27N 44°06' W 069°06'1 2.5
2017-Oct-13 18:00N 44°06' W 069°05'711.9
2017-Oct-13 17:23N 44°04' W 068°55'3 1.5
2017-Oct-13 15:32N 44°03' W 068°52'212.0
2017-Oct-13 15:24N 44°04' W 068°53'611.7
2017-Oct-13 14:55N 44°06' W 069°01'4 4.1
2017-Oct-13 13:55N 44°06' W 069°06'410.6
2017-Oct-13 13:30N 44°06' W 069°00'8 5.5
2017-Oct-13 12:06N 44°02' W 068°51'211.7
2017-Oct-13 11:58N 44°03' W 068°53'711.9
2017-Oct-13 11:21N 44°06' W 069°02'3 0.2
2017-Oct-12 21:41N 44°06' W 069°06'2 8.5
2017-Oct-12 21:29N 44°06' W 069°04'611.8
2017-Oct-12 21:00N 44°05' W 068°56'2 1.2
2017-Oct-12 19:35N 44°04' W 068°54'112.0
2017-Oct-12 19:30N 44°05' W 068°56'612.0
2017-Oct-12 19:00N 44°06' W 069°04'2 2.9
2017-Oct-12 18:18N 44°06' W 069°06'1 3.2
2017-Oct-12 17:59N 44°06' W 069°05'612.3
2017-Oct-12 17:29N 44°05' W 068°57'5 2.9
2017-Oct-12 15:45N 44°02' W 068°51'311.1
2017-Oct-12 15:29N 44°04' W 068°54'811.9
2017-Oct-12 14:50N 44°06' W 069°04'2 5.1
2017-Oct-12 14:30N 44°06' W 069°06'1 1.5
2017-Oct-12 13:46N 44°06' W 069°05'6 3.0
2017-Oct-12 11:39N 44°05' W 068°56'412.3
2017-Oct-12 11:19N 44°06' W 069°02'310.7
2017-Oct-12 11:00N 44°06' W 069°06'0 0.0
2017-Oct-11 21:51N 44°06' W 069°06'1 4.1
2017-Oct-11 21:30N 44°06' W 069°04'711.6
2017-Oct-11 20:54N 44°04' W 068°55'1 1.2
2017-Oct-11 19:38N 44°04' W 068°53'211.8
2017-Oct-11 19:29N 44°04' W 068°55'812.2
2017-Oct-11 18:53N 44°06' W 069°05'1 0.9
2017-Oct-11 18:09N 44°06' W 069°06'1 7.5
2017-Oct-11 17:58N 44°06' W 069°04'511.7
2017-Oct-11 17:31N 44°05' W 068°57'1 0.0
2017-Oct-10 21:05N 44°05' W 068°58'1 9.8
2017-Oct-10 21:00N 44°05' W 068°57'5 4.5
2017-Oct-10 19:52N 44°02' W 068°51'712.1
2017-Oct-10 19:15N 44°06' W 068°60'312.2
2017-Oct-10 19:00N 44°06' W 069°04'2 2.7
2017-Oct-10 18:24N 44°06' W 069°06'2 4.4
2017-Oct-10 17:57N 44°06' W 069°04'10 4.3
2017-Oct-10 15:36N 44°02' W 068°51'211.3
2017-Oct-10 15:27N 44°03' W 068°53'10 6.0
2017-Oct-10 13:51N 44°06' W 069°06'411.8
2017-Oct-10 13:30N 44°06' W 068°60'7 5.0
2017-Oct-10 12:07N 44°03' W 068°51'412.7
2017-Oct-10 11:49N 44°05' W 068°56'511.4
2017-Oct-10 11:24N 44°06' W 069°02'2 0.1
2017-Oct-09 21:13N 44°06' W 068°60'211.8
2017-Oct-09 21:00N 44°05' W 068°57'1 0.4
2017-Oct-09 19:33N 44°05' W 068°56'8 5.7
2017-Oct-09 18:12N 44°06' W 069°06'1 6.8
2017-Oct-09 18:00N 44°06' W 069°05'612.2
2017-Oct-09 17:29N 44°05' W 068°56'3 2.0
2017-Oct-09 15:53N 44°03' W 068°52'811.5
2017-Oct-09 15:10N 44°06' W 069°03'2 2.1
2017-Oct-09 14:04N 44°06' W 069°06'0 1.5
2017-Oct-09 13:59N 44°06' W 069°06'711.1
2017-Oct-09 13:22N 44°05' W 068°57'5 5.7
2017-Oct-09 12:26N 44°03' W 068°50'510.3
2017-Oct-09 11:55N 44°05' W 068°57'512.2
2017-Oct-09 11:30N 44°06' W 069°04'2 0.1
2017-Oct-08 17:40N 44°06' W 069°06'0 0.0
2017-Oct-08 17:24N 44°06' W 069°06'0 0.0
2017-Oct-08 16:51N 44°06' W 069°06'0 0.0
2017-Oct-08 16:19N 44°06' W 069°06'0 0.0
2017-Oct-08 14:41N 44°06' W 069°06'0 0.0
2017-Oct-08 14:19N 44°06' W 069°06'0 0.2
2017-Oct-08 13:55N 44°06' W 069°06'510.4
2017-Oct-08 13:24N 44°06' W 068°59'5 3.7
2017-Oct-08 11:59N 44°03' W 068°53'  

Dump ship's entire track history